Time;durP1;ratioP1;P1;durP2;ratioP2;P2;SDS_P1;SDS_P2;PMS_P1;PMS_P2;Temp;Humidity;BMP_temperature;BMP_pressure;BME280_temperature;BME280_humidity;BME280_pressure;Samples;Min_cycle;Max_cycle;Signal;HPM_P1;HPM_P2
2022/07/06 00:00:16;;;;;;;7.05;1.52;;;;;;;15.85;74.84;101487.97;8259236;28;20478;-62
2022/07/06 00:04:18;;;;;;;5.38;1.75;;;;;;;15.73;75.27;101490.00;8263199;28;20046;-62
2022/07/06 00:08:19;;;;;;;6.78;1.98;;;;;;;15.36;77.20;101486.38;8263582;28;20510;-62
2022/07/06 00:12:19;;;;;;;8.55;2.35;;;;;;;15.42;76.96;101486.69;8262936;28;20448;-62
2022/07/06 00:16:20;;;;;;;4.88;1.60;;;;;;;15.44;76.73;101489.25;8263513;28;20035;-63
2022/07/06 00:20:20;;;;;;;5.25;1.90;;;;;;;15.42;76.71;101483.94;8270628;28;20510;-63
2022/07/06 00:24:20;;;;;;;6.00;2.03;;;;;;;15.41;76.83;101465.03;8267743;28;20125;-63
2022/07/06 00:28:21;;;;;;;6.95;2.50;;;;;;;15.31;77.10;101473.19;8271633;28;20293;-63
2022/07/06 00:32:21;;;;;;;4.60;2.15;;;;;;;15.25;77.29;101468.31;8265301;28;20022;-63
2022/07/06 00:36:22;;;;;;;9.02;2.10;;;;;;;14.96;79.18;101474.84;8260660;28;20538;-63
2022/07/06 00:40:22;;;;;;;7.37;2.13;;;;;;;14.69;80.69;101474.69;8261936;28;20065;-63
2022/07/06 00:44:23;;;;;;;4.43;2.10;;;;;;;14.19;84.23;101482.09;8261520;28;20774;-63
2022/07/06 00:48:23;;;;;;;7.40;2.25;;;;;;;14.13;83.85;101482.66;8263295;28;20034;-63
2022/07/06 00:52:24;;;;;;;6.17;2.50;;;;;;;13.96;85.77;101491.47;8263551;28;20045;-63
2022/07/06 00:56:26;;;;;;;6.32;2.60;;;;;;;13.88;86.23;101482.28;8261618;28;20855;-63
2022/07/06 01:00:27;;;;;;;3.70;2.63;;;;;;;13.95;84.89;101484.31;8268414;28;20034;-63
2022/07/06 01:04:28;;;;;;;6.80;2.58;;;;;;;13.99;84.76;101485.75;8259937;28;20044;-63
2022/07/06 01:08:29;;;;;;;3.08;2.50;;;;;;;13.99;85.43;101503.94;8261462;28;20046;-63
2022/07/06 01:12:30;;;;;;;4.72;2.00;;;;;;;14.32;83.24;101493.59;8260842;28;20404;-63
2022/07/06 01:16:31;;;;;;;3.60;2.15;;;;;;;14.45;82.23;101504.22;8260615;28;20045;-63
2022/07/06 01:20:31;;;;;;;5.13;2.13;;;;;;;14.52;82.03;101506.22;8258836;28;20066;-63
2022/07/06 01:24:35;;;;;;;4.30;2.17;;;;;;;14.41;82.17;101498.19;8260400;28;20042;-63
2022/07/06 01:28:35;;;;;;;4.38;2.40;;;;;;;14.33;82.42;101489.88;8260508;28;20044;-63
2022/07/06 01:32:36;;;;;;;6.95;2.83;;;;;;;14.18;83.16;101493.13;8257528;28;20038;-63
2022/07/06 01:36:37;;;;;;;5.53;2.45;;;;;;;14.32;82.49;101488.16;8259155;28;20034;-63
2022/07/06 01:40:37;;;;;;;5.70;1.98;;;;;;;14.26;82.52;101488.72;8275509;28;20038;-63
2022/07/06 01:44:38;;;;;;;7.00;2.30;;;;;;;14.34;81.58;101480.72;8259840;28;20121;-63
2022/07/06 01:48:38;;;;;;;6.88;2.33;;;;;;;14.33;81.32;101489.88;8260626;28;20293;-63
2022/07/06 01:52:38;;;;;;;6.10;2.10;;;;;;;14.40;80.91;101485.59;8260118;28;20037;-63
2022/07/06 01:56:39;;;;;;;3.20;2.17;;;;;;;14.44;80.73;101486.16;8260308;28;20034;-63
2022/07/06 02:00:39;;;;;;;6.03;2.13;;;;;;;14.33;81.36;101484.44;8259603;28;20509;-63
2022/07/06 02:04:40;;;;;;;4.18;2.53;;;;;;;14.23;81.87;101478.13;8259885;28;20109;-62
2022/07/06 02:08:41;;;;;;;4.32;2.22;;;;;;;14.26;81.45;101477.84;8259896;28;20498;-62
2022/07/06 02:12:41;;;;;;;9.07;2.17;;;;;;;14.12;81.99;101480.91;8259777;28;20034;-62
2022/07/06 02:16:42;;;;;;;5.57;2.70;;;;;;;14.02;82.57;101480.03;8274761;28;20047;-62
2022/07/06 02:20:42;;;;;;;10.07;2.15;;;;;;;13.97;82.88;101487.78;8259357;28;20066;-62
2022/07/06 02:24:42;;;;;;;3.70;2.20;;;;;;;13.77;83.74;101485.97;8259354;28;20038;-62
2022/07/06 02:28:45;;;;;;;3.57;1.80;;;;;;;13.42;86.50;101486.38;8259730;28;20041;-62
2022/07/06 02:32:45;;;;;;;5.32;3.03;;;;;;;13.17;87.83;101491.38;8259368;28;20266;-62
2022/07/06 02:36:46;;;;;;;6.88;2.92;;;;;;;13.12;88.44;101482.78;8259013;28;20125;-62
2022/07/06 02:40:47;;;;;;;3.42;2.50;;;;;;;13.32;87.18;101473.75;8252088;28;20030;-62
2022/07/06 02:44:47;;;;;;;9.82;2.92;;;;;;;13.27;87.62;101487.72;8258576;28;20045;-62
2022/07/06 02:48:47;;;;;;;6.27;2.70;;;;;;;12.90;90.05;101488.31;8258881;28;20038;-62
2022/07/06 02:52:48;;;;;;;3.97;2.90;;;;;;;12.75;90.69;101484.22;8259167;28;20257;-62
2022/07/06 02:56:52;;;;;;;5.95;3.03;;;;;;;12.87;90.65;101488.59;8259727;28;20369;-62
2022/07/06 03:00:52;;;;;;;5.95;3.50;;;;;;;12.74;90.70;101487.88;8258754;28;20058;-62
2022/07/06 03:04:53;;;;;;;5.40;3.15;;;;;;;12.53;91.10;101485.16;8264726;28;20526;-62
2022/07/06 03:08:53;;;;;;;11.57;3.58;;;;;;;12.34;92.22;101486.81;8267227;28;20049;-62
2022/07/06 03:12:54;;;;;;;6.70;3.50;;;;;;;12.28;92.47;101490.91;8268113;28;20068;-62
2022/07/06 03:16:54;;;;;;;6.32;3.15;;;;;;;12.20;93.04;101498.81;8271426;28;20133;-62
2022/07/06 03:20:55;;;;;;;5.75;3.47;;;;;;;12.25;92.93;101499.31;8265384;28;20046;-62
2022/07/06 03:24:55;;;;;;;10.07;3.38;;;;;;;12.35;94.05;101502.13;8264751;28;20042;-62
2022/07/06 03:28:55;;;;;;;7.03;3.80;;;;;;;12.68;92.67;101505.56;8264990;28;20038;-62
2022/07/06 03:32:56;;;;;;;12.77;4.30;;;;;;;12.63;92.36;101512.38;8264769;28;20035;-62
2022/07/06 03:36:56;;;;;;;6.35;3.92;;;;;;;12.74;92.86;101515.91;8265098;28;20847;-61
2022/07/06 03:40:57;;;;;;;9.57;4.25;;;;;;;12.74;93.21;101509.59;8264066;28;20037;-61
2022/07/06 03:44:57;;;;;;;8.43;4.07;;;;;;;12.72;93.28;101517.03;8266994;28;20121;-61
2022/07/06 03:48:57;;;;;;;6.50;4.75;;;;;;;12.57;93.66;101510.19;8268894;28;20038;-61
2022/07/06 03:52:58;;;;;;;9.68;4.78;;;;;;;12.45;95.27;101513.91;8270089;28;20113;-61
2022/07/06 03:56:58;;;;;;;15.95;5.28;;;;;;;12.21;96.52;101515.94;8264586;28;20546;-61
2022/07/06 04:00:59;;;;;;;11.43;5.05;;;;;;;12.09;96.44;101517.84;8263527;28;20042;-61
2022/07/06 04:04:59;;;;;;;11.10;5.72;;;;;;;12.29;97.04;101521.63;8263700;28;20042;-61
2022/07/06 04:09:00;;;;;;;10.48;5.20;;;;;;;12.49;95.42;101515.38;8264060;28;20454;-61
2022/07/06 04:13:00;;;;;;;10.20;5.05;;;;;;;12.52;95.64;101520.53;8263262;28;20034;-62
2022/07/06 04:17:51;;;;;;;11.98;5.85;;;;;;;12.73;95.09;101521.44;8263157;28;20034;-62
2022/07/06 04:21:21;;;;;;;11.95;4.95;;;;;;;12.88;95.23;101528.28;8264250;28;20414;-62
2022/07/06 04:25:22;;;;;;;23.27;5.63;;;;;;;13.00;94.13;101516.44;8264305;28;20132;-63
2022/07/06 04:29:22;;;;;;;11.00;5.30;;;;;;;13.16;93.15;101519.53;8261037;28;20281;-62
2022/07/06 04:33:22;;;;;;;11.82;5.47;;;;;;;13.18;94.01;101526.53;8266666;28;20126;-62
2022/07/06 04:37:23;;;;;;;14.35;5.47;;;;;;;13.44;92.34;101533.31;8259169;28;20085;-62
2022/07/06 04:41:23;;;;;;;17.42;5.90;;;;;;;13.62;91.79;101528.09;8258278;28;20034;-62
2022/07/06 04:45:24;;;;;;;19.65;5.97;;;;;;;13.59;91.82;101525.66;8257277;28;20042;-62
2022/07/06 04:49:24;;;;;;;11.68;4.85;;;;;;;13.57;92.30;101530.34;8258628;28;20530;-62
2022/07/06 04:53:25;;;;;;;15.88;5.15;;;;;;;13.62;93.19;101525.38;8258068;28;20046;-62
2022/07/06 04:57:25;;;;;;;9.93;4.85;;;;;;;13.96;91.79;101532.25;8258164;28;20046;-62
2022/07/06 05:01:26;;;;;;;16.27;5.43;;;;;;;13.94;92.28;101531.56;8257187;28;20137;-62
2022/07/06 05:05:26;;;;;;;12.07;4.53;;;;;;;14.34;90.52;101539.72;8257582;28;20113;-62
2022/07/06 05:09:27;;;;;;;23.13;4.50;;;;;;;14.63;89.25;101533.31;8258484;28;20089;-62
2022/07/06 05:13:27;;;;;;;19.03;4.67;;;;;;;15.04;87.79;101535.72;8259464;28;20053;-62
2022/07/06 05:17:27;;;;;;;15.93;4.07;;;;;;;15.31;84.62;101538.56;8262087;28;20277;-62
2022/07/06 05:21:28;;;;;;;11.63;3.85;;;;;;;15.47;84.12;101538.84;8257711;28;20590;-62
2022/07/06 05:25:28;;;;;;;4.80;3.67;;;;;;;15.47;85.19;101541.59;8256481;28;20101;-62
2022/07/06 05:29:29;;;;;;;6.25;3.38;;;;;;;15.70;87.64;101534.78;8256239;28;20046;-62
2022/07/06 05:33:43;;;;;;;7.63;3.10;;;;;;;16.92;80.24;101543.44;8255448;28;20387;-62
2022/07/06 05:37:43;;;;;;;12.63;3.38;;;;;;;16.44;80.75;101538.31;8255696;28;20046;-62
2022/07/06 05:41:44;;;;;;;11.18;3.50;;;;;;;16.49;80.91;101535.13;8251850;28;20066;-62
2022/07/06 05:45:44;;;;;;;11.47;3.20;;;;;;;16.24;81.91;101533.09;8253932;28;20482;-62
2022/07/06 05:50:17;;;;;;;5.40;2.03;;;;;;;16.72;80.51;101544.59;8253632;28;20336;-63
2022/07/06 05:54:05;;;;;;;6.07;2.47;;;;;;;16.60;80.12;101552.16;8255173;28;20042;-63
2022/07/06 05:58:05;;;;;;;6.13;2.55;;;;;;;16.77;80.30;101555.94;8255958;28;20061;-63
2022/07/06 06:02:06;;;;;;;5.50;2.38;;;;;;;16.91;78.61;101555.38;8259253;28;20045;-63
2022/07/06 06:06:06;;;;;;;9.13;2.00;;;;;;;16.67;78.68;101557.84;8261175;28;20030;-63
2022/07/06 06:10:11;;;;;;;9.60;1.92;;;;;;;16.76;78.30;101551.47;8257112;28;20394;-63
2022/07/06 06:14:11;;;;;;;10.20;2.15;;;;;;;16.86;78.04;101561.31;8255890;28;20034;-63
2022/07/06 06:18:12;;;;;;;6.97;2.67;;;;;;;17.02;79.05;101557.88;8256257;28;20050;-63
2022/07/06 06:22:13;;;;;;;4.95;2.28;;;;;;;17.15;76.32;101563.81;8255646;28;20117;-63
2022/07/06 06:26:13;;;;;;;6.55;1.65;;;;;;;17.23;77.86;101561.16;8256445;28;20061;-63
2022/07/06 06:30:14;;;;;;;5.70;1.83;;;;;;;17.06;76.29;101560.16;8256114;28;20037;-63
2022/07/06 06:34:14;;;;;;;5.82;1.40;;;;;;;16.97;76.28;101565.69;8255788;28;20030;-63
2022/07/06 06:38:15;;;;;;;7.28;1.20;;;;;;;17.10;77.25;101566.13;8270031;28;20045;-63
2022/07/06 06:42:16;;;;;;;6.25;1.75;;;;;;;17.21;75.93;101571.38;8261807;28;20038;-63
2022/07/06 06:46:16;;;;;;;13.33;1.67;;;;;;;17.61;76.09;101574.47;8262351;28;20034;-63
2022/07/06 06:50:16;;;;;;;9.88;1.45;;;;;;;17.51;74.21;101574.56;8262590;28;20277;-63
2022/07/06 06:54:17;;;;;;;7.15;1.65;;;;;;;17.98;73.63;101571.44;8270223;28;20042;-63
2022/07/06 06:58:17;;;;;;;3.47;1.02;;;;;;;17.97;72.86;101567.88;8266207;28;20502;-61
2022/07/06 07:02:18;;;;;;;6.67;1.40;;;;;;;18.02;72.17;101576.44;8261304;28;20101;-62
2022/07/06 07:06:18;;;;;;;2.53;0.75;;;;;;;18.19;72.95;101566.41;8261153;28;20289;-62
2022/07/06 07:10:18;;;;;;;2.83;1.00;;;;;;;17.92;72.49;101580.28;8262593;28;20118;-62
2022/07/06 07:14:19;;;;;;;2.00;0.80;;;;;;;17.83;73.75;101576.66;8265312;28;20054;-62
2022/07/06 07:18:19;;;;;;;3.85;1.00;;;;;;;17.83;73.77;101576.66;8267580;28;20034;-62
2022/07/06 07:22:19;;;;;;;7.47;1.63;;;;;;;17.89;73.02;101575.16;8271302;28;20046;-62
2022/07/06 07:26:20;;;;;;;8.70;1.47;;;;;;;18.14;73.37;101575.13;8264109;28;20645;-62
2022/07/06 07:30:20;;;;;;;7.47;1.03;;;;;;;18.38;71.79;101578.00;8259356;28;20304;-62
2022/07/06 07:34:20;;;;;;;3.53;1.10;;;;;;;18.10;73.35;101572.88;8264562;28;20285;-62
2022/07/06 07:38:21;;;;;;;8.10;1.40;;;;;;;17.82;74.50;101569.47;8248972;28;20273;-62
2022/07/06 07:42:21;;;;;;;6.10;1.10;;;;;;;17.69;74.22;101580.00;8263395;28;20057;-62
2022/07/06 07:46:22;;;;;;;2.67;1.03;;;;;;;17.74;74.71;101583.09;8262424;28;20038;-62
2022/07/06 07:50:22;;;;;;;5.85;0.80;;;;;;;17.82;74.28;101585.91;8269458;28;20642;-62
2022/07/06 07:54:23;;;;;;;7.75;0.90;;;;;;;17.76;72.99;101586.53;8259986;28;20030;-62
2022/07/06 07:58:24;;;;;;;3.58;0.80;;;;;;;17.84;73.33;101589.31;8262564;28;20572;-62
2022/07/06 08:02:24;;;;;;;3.67;0.70;;;;;;;17.82;72.78;101588.63;8260438;28;20078;-62
2022/07/06 08:06:25;;;;;;;9.10;1.20;;;;;;;17.92;72.05;101581.16;8260029;28;20570;-62
2022/07/06 08:10:25;;;;;;;3.35;0.73;;;;;;;17.98;72.52;101579.66;8260083;28;20511;-62
2022/07/06 08:14:26;;;;;;;4.10;0.82;;;;;;;17.87;70.31;101583.50;8259655;28;20565;-62
2022/07/06 08:18:45;;;;;;;2.67;0.98;;;;;;;17.91;69.97;101579.47;8255603;28;20506;-62
2022/07/06 08:22:45;;;;;;;2.65;0.80;;;;;;;17.76;70.72;101581.06;8258261;28;20034;-62
2022/07/06 08:26:45;;;;;;;4.27;1.00;;;;;;;17.73;71.64;101584.13;8259477;28;20042;-62
2022/07/06 08:30:47;;;;;;;5.47;0.80;;;;;;;17.57;72.14;101582.13;8258506;28;20336;-62
2022/07/06 08:34:48;;;;;;;3.22;0.70;;;;;;;17.53;72.90;101579.88;8258475;28;20502;-62
2022/07/06 08:38:48;;;;;;;6.93;1.10;;;;;;;17.57;72.03;101581.28;8260376;28;20474;-62
2022/07/06 08:42:53;;;;;;;3.47;0.75;;;;;;;17.84;71.31;101583.84;8256108;28;20046;-62
2022/07/06 08:46:57;;;;;;;2.05;0.90;;;;;;;18.18;70.76;101575.66;8265778;28;20494;-62
2022/07/06 08:50:58;;;;;;;3.85;0.80;;;;;;;18.41;69.55;101583.16;8258961;28;20038;-62
2022/07/06 08:54:59;;;;;;;2.60;0.73;;;;;;;18.51;69.36;101578.38;8263195;28;20041;-62
2022/07/06 08:59:00;;;;;;;2.05;0.80;;;;;;;18.49;68.29;101574.97;8264726;28;20497;-62
2022/07/06 09:03:01;;;;;;;6.00;1.30;;;;;;;18.54;69.45;101575.31;8264681;28;20060;-62
2022/07/06 09:07:02;;;;;;;1.88;0.80;;;;;;;18.38;69.06;101578.00;8261221;28;20057;-61
2022/07/06 09:11:03;;;;;;;7.68;1.05;;;;;;;18.31;70.45;101587.88;8263154;28;20046;-62
2022/07/06 09:15:04;;;;;;;2.83;0.90;;;;;;;18.35;69.54;101583.78;8259472;28;20030;-63
2022/07/06 09:19:05;;;;;;;2.63;0.85;;;;;;;18.41;69.84;101583.16;8255815;28;20074;-63
2022/07/06 09:23:06;;;;;;;2.20;0.75;;;;;;;18.52;68.54;101582.00;8257234;28;20050;-62
2022/07/06 09:27:17;;;;;;;4.10;1.17;;;;;;;18.65;64.75;101574.16;8267322;28;20045;-61
2022/07/06 09:31:17;;;;;;;2.70;0.63;;;;;;;19.05;65.32;101577.84;8262824;28;20049;-60
2022/07/06 09:35:23;;;;;;;3.42;0.55;;;;;;;19.41;64.77;101579.28;8262681;28;20495;-61
2022/07/06 09:39:26;;;;;;;3.13;0.90;;;;;;;19.41;63.52;101582.03;8257983;28;20094;-61
2022/07/06 09:43:26;;;;;;;2.37;0.63;;;;;;;19.39;65.01;101575.84;8257778;28;20131;-60
2022/07/06 09:47:27;;;;;;;5.73;0.80;;;;;;;19.33;65.72;101575.66;8258962;28;20045;-62
2022/07/06 09:51:30;;;;;;;2.78;0.88;;;;;;;19.77;65.11;101578.88;8258369;28;20376;-62
2022/07/06 09:55:30;;;;;;;3.22;0.80;;;;;;;20.20;63.17;101575.72;8258075;28;20058;-62
2022/07/06 09:59:33;;;;;;;1.42;0.70;;;;;;;20.56;62.13;101588.78;8265298;28;20049;-61
2022/07/06 10:03:34;;;;;;;4.00;0.80;;;;;;;21.06;61.08;101580.09;8259626;28;20035;-62
2022/07/06 10:07:34;;;;;;;2.95;0.80;;;;;;;22.26;58.07;101576.22;8258746;28;20044;-62
2022/07/06 10:11:38;;;;;;;3.63;0.90;;;;;;;21.89;57.73;101576.31;8258009;28;20399;-62
2022/07/06 10:15:40;;;;;;;6.90;0.93;;;;;;;21.59;58.51;101574.50;8268243;28;20065;-61
2022/07/06 10:19:41;;;;;;;3.35;0.60;;;;;;;20.87;60.28;101569.56;8264944;28;20054;-62
2022/07/06 10:23:42;;;;;;;7.38;0.90;;;;;;;20.67;59.05;101579.28;8258189;28;20050;-61
2022/07/06 10:27:45;;;;;;;1.90;0.60;;;;;;;21.48;59.28;101580.47;8258431;28;20041;-61
2022/07/06 10:31:47;;;;;;;5.07;0.85;;;;;;;23.77;56.05;101573.28;8269972;28;20118;-55
2022/07/06 10:35:49;;;;;;;2.90;0.60;;;;;;;24.10;52.05;101557.84;8258085;28;20034;-61
2022/07/06 10:41:06;;;;;;;3.45;0.80;;;;;;;24.00;51.53;101562.88;8255742;28;20042;-61
2022/07/06 10:44:16;;;;;;;4.65;0.65;;;;;;;24.17;50.69;101561.47;8254647;28;20031;-61
2022/07/06 10:48:17;;;;;;;2.35;0.50;;;;;;;25.29;50.48;101563.63;8260312;28;20031;-62
2022/07/06 10:52:18;;;;;;;1.60;0.50;;;;;;;24.32;49.57;101556.69;8250685;28;20101;-61
2022/07/06 10:56:32;;;;;;;5.43;0.70;;;;;;;25.26;48.91;101551.06;8258148;28;20038;-61
2022/07/06 11:00:53;;;;;;;3.15;0.45;;;;;;;25.52;49.50;101542.81;8268065;28;20757;-61
2022/07/06 11:04:54;;;;;;;4.05;0.50;;;;;;;24.55;49.12;101546.16;8250863;28;20058;-61
2022/07/06 11:08:56;;;;;;;2.72;0.70;;;;;;;25.36;47.82;101551.53;8256112;28;20569;-61
2022/07/06 11:13:00;;;;;;;7.53;0.70;;;;;;;26.28;47.57;101536.53;8263568;28;20545;-61
2022/07/06 11:17:03;;;;;;;5.78;0.60;;;;;;;27.61;44.12;101544.78;8262853;28;20043;-61
2022/07/06 11:21:31;;;;;;;3.10;0.60;;;;;;;24.83;48.57;101549.72;8264873;28;20430;-62
2022/07/06 11:25:32;;;;;;;1.67;0.50;;;;;;;25.41;48.74;101549.00;8270202;28;20151;-61
2022/07/06 11:29:34;;;;;;;2.80;0.50;;;;;;;23.75;49.43;101545.88;8263055;28;20046;-61
2022/07/06 11:33:34;;;;;;;5.25;0.50;;;;;;;22.59;52.45;101541.72;8266098;28;20309;-62
2022/07/06 11:37:35;;;;;;;3.97;0.73;;;;;;;22.07;53.31;101542.88;8263263;28;20046;-62
2022/07/06 11:41:36;;;;;;;7.80;0.87;;;;;;;22.08;53.87;101542.69;8260611;28;20050;-61
2022/07/06 11:45:37;;;;;;;4.97;0.82;;;;;;;21.99;53.99;101548.50;8267284;28;20038;-61
2022/07/06 11:49:39;;;;;;;1.73;0.43;;;;;;;22.07;52.87;101535.47;8261186;28;20042;-62
2022/07/06 11:53:48;;;;;;;3.13;0.43;;;;;;;22.77;51.15;101536.63;8265069;28;20285;-62
2022/07/06 11:57:51;;;;;;;2.72;0.50;;;;;;;23.05;51.10;101540.34;8262436;28;20035;-62
2022/07/06 12:02:13;;;;;;;2.45;0.40;;;;;;;22.37;52.48;101528.91;8267088;28;20101;-61
2022/07/06 12:06:17;;;;;;;2.53;0.50;;;;;;;22.29;51.80;101536.44;8262759;28;20038;-62
2022/07/06 12:10:32;;;;;;;2.50;0.40;;;;;;;22.79;51.88;101523.50;8258748;28;20034;-62
2022/07/06 12:14:34;;;;;;;5.10;0.60;;;;;;;22.47;52.60;101529.44;8270140;28;20390;-62
2022/07/06 12:18:38;;;;;;;2.45;0.40;;;;;;;22.80;52.79;101524.34;8260164;28;20065;-62
2022/07/06 12:22:38;;;;;;;3.45;0.40;;;;;;;22.73;51.91;101521.53;8269916;28;20100;-62
2022/07/06 12:26:40;;;;;;;1.90;0.60;;;;;;;22.41;52.93;101513.69;8268916;28;20038;-62
2022/07/06 12:30:47;;;;;;;2.03;0.40;;;;;;;21.94;52.98;101505.00;8257412;28;20265;-62
2022/07/06 12:35:02;;;;;;;2.70;0.50;;;;;;;21.76;54.97;101501.75;8264852;28;20038;-62
2022/07/06 12:39:10;;;;;;;3.50;0.45;;;;;;;22.24;54.78;101501.19;8259640;28;20437;-62
2022/07/06 12:43:11;;;;;;;4.47;0.65;;;;;;;22.76;54.53;101500.97;8259762;28;20509;-62
2022/07/06 12:47:12;;;;;;;2.00;0.50;;;;;;;22.72;52.58;101495.00;8258782;28;20386;-62
2022/07/06 12:51:12;;;;;;;3.28;0.70;;;;;;;22.71;51.94;101493.28;8256191;28;20037;-62
2022/07/06 12:55:15;;;;;;;0.98;0.30;;;;;;;22.82;51.84;101495.53;8256988;28;20034;-62
2022/07/06 12:59:22;;;;;;;4.25;0.43;;;;;;;22.77;51.50;101484.25;8255376;28;20062;-62
2022/07/06 13:03:22;;;;;;;1.95;0.32;;;;;;;22.72;52.65;101478.44;8255960;28;20062;-62
2022/07/06 13:07:23;;;;;;;1.63;0.47;;;;;;;23.57;54.06;101475.66;8259649;28;20046;-60
2022/07/06 13:11:23;;;;;;;3.17;0.50;;;;;;;23.45;53.75;101472.56;8268226;28;20075;-60
2022/07/06 13:15:24;;;;;;;10.38;0.90;;;;;;;23.81;52.78;101469.63;8269704;28;20044;-56
2022/07/06 13:19:24;;;;;;;2.80;0.50;;;;;;;23.50;51.37;101472.81;8264509;28;20113;-62
2022/07/06 13:23:24;;;;;;;1.83;0.80;;;;;;;22.79;50.44;101462.84;8266505;28;20091;-61
2022/07/06 13:27:25;;;;;;;3.43;0.60;;;;;;;23.08;50.72;101467.34;8263541;28;20957;-61
2022/07/06 13:31:27;;;;;;;2.35;0.50;;;;;;;22.92;52.44;101468.47;8265598;28;20286;-62
2022/07/06 13:35:27;;;;;;;3.10;0.88;;;;;;;22.95;53.31;101458.94;8256065;28;20113;-62
2022/07/06 13:39:28;;;;;;;3.77;0.70;;;;;;;23.11;50.44;101461.41;8255453;28;20038;-62
2022/07/06 13:43:35;;;;;;;5.68;1.00;;;;;;;22.77;50.51;101453.03;8256278;28;20281;-62
2022/07/06 13:47:36;;;;;;;2.35;0.50;;;;;;;22.50;51.51;101451.91;8256009;28;20032;-62
2022/07/06 13:51:36;;;;;;;2.70;0.50;;;;;;;22.40;51.50;101445.84;8255861;28;20053;-62
2022/07/06 13:55:37;;;;;;;2.22;0.57;;;;;;;22.41;50.97;101442.03;8267733;28;20045;-62
2022/07/06 13:59:37;;;;;;;7.10;0.63;;;;;;;22.49;50.98;101439.16;8259587;28;20407;-62
2022/07/06 14:03:47;;;;;;;2.33;0.45;;;;;;;22.73;52.03;101430.53;8258289;28;20092;-62
2022/07/06 14:07:47;;;;;;;7.38;0.82;;;;;;;22.94;50.16;101426.91;8253162;28;20054;-62
2022/07/06 14:11:47;;;;;;;3.22;0.60;;;;;;;22.99;51.24;101433.53;8257627;28;20039;-62
2022/07/06 14:15:48;;;;;;;1.30;0.55;;;;;;;22.74;51.39;101435.00;8254145;28;20037;-62
2022/07/06 14:19:49;;;;;;;3.85;0.70;;;;;;;22.50;51.17;101424.34;8253427;28;20049;-62
2022/07/06 14:23:50;;;;;;;5.95;0.82;;;;;;;22.15;53.17;101422.44;8265050;28;20038;-62
2022/07/06 14:27:50;;;;;;;2.17;1.15;;;;;;;22.49;53.18;101419.84;8255202;28;20039;-62
2022/07/06 14:31:50;;;;;;;5.90;0.70;;;;;;;22.75;53.31;101417.38;8264950;28;20172;-62
2022/07/06 14:35:51;;;;;;;1.25;0.50;;;;;;;22.91;51.63;101419.88;8262478;28;20741;-62
2022/07/06 14:39:51;;;;;;;0.85;0.60;;;;;;;22.55;50.43;101409.97;8256934;28;20494;-62
2022/07/06 14:43:51;;;;;;;37.15;1.73;;;;;;;22.77;51.66;101409.78;8254383;28;20375;-62
2022/07/06 14:47:52;;;;;;;3.23;0.60;;;;;;;22.97;51.03;101399.75;8255696;28;20038;-62
2022/07/06 14:51:53;;;;;;;8.13;0.60;;;;;;;23.10;50.58;101399.88;8259485;28;20301;-62
2022/07/06 14:55:53;;;;;;;2.42;0.70;;;;;;;23.17;52.46;101394.41;8266755;28;20129;-62
2022/07/06 14:59:54;;;;;;;3.10;0.70;;;;;;;23.04;50.92;101400.69;8260057;28;20035;-62
2022/07/06 15:03:54;;;;;;;4.97;0.82;;;;;;;22.65;51.41;101393.94;8258587;28;20035;-62
2022/07/06 15:07:55;;;;;;;4.97;0.60;;;;;;;22.78;51.38;101383.91;8254154;28;20049;-62
2022/07/06 15:11:55;;;;;;;4.38;0.50;;;;;;;23.06;52.68;101386.69;8258234;28;20273;-62
2022/07/06 15:15:56;;;;;;;2.58;0.40;;;;;;;22.64;51.85;101387.59;8260120;28;20062;-62
2022/07/06 15:19:56;;;;;;;0.73;0.30;;;;;;;22.78;52.03;101378.38;8266163;28;20039;-62
2022/07/06 15:23:57;;;;;;;6.03;0.50;;;;;;;23.04;52.40;101373.09;8269314;28;20041;-62
2022/07/06 15:27:57;;;;;;;3.47;0.70;;;;;;;22.71;50.77;101368.34;8269419;28;20413;-62
2022/07/06 15:31:58;;;;;;;1.83;0.47;;;;;;;23.19;50.61;101365.56;8266417;28;20039;-61
2022/07/06 15:35:58;;;;;;;4.45;0.60;;;;;;;23.06;51.00;101359.09;8250209;28;20294;-61
2022/07/06 15:39:59;;;;;;;3.30;0.60;;;;;;;22.91;51.20;101350.91;8238350;28;20042;-61
2022/07/06 15:43:59;;;;;;;3.25;0.70;;;;;;;23.09;51.54;101351.25;8227405;28;20415;-61
2022/07/06 15:48:00;;;;;;;3.45;0.70;;;;;;;23.01;51.15;101345.91;8244111;28;20099;-61
2022/07/06 15:52:01;;;;;;;5.15;0.88;;;;;;;22.91;50.80;101331.59;8229944;28;20050;-61
2022/07/06 15:56:02;;;;;;;4.20;0.47;;;;;;;23.08;51.94;101329.38;8249820;28;20069;-61
2022/07/06 16:00:03;;;;;;;1.75;0.63;;;;;;;23.09;51.41;101329.19;8236317;28;20069;-61
2022/07/06 16:04:03;;;;;;;2.53;0.50;;;;;;;22.88;51.10;101326.47;8240540;28;20425;-61
2022/07/06 16:08:04;;;;;;;2.78;0.50;;;;;;;22.92;52.05;101319.53;8245691;28;20200;-61
2022/07/06 16:12:04;;;;;;;1.02;0.50;;;;;;;22.83;50.88;101311.59;8247682;28;20042;-61
2022/07/06 16:16:05;;;;;;;2.78;0.65;;;;;;;23.04;50.50;101311.53;8252450;28;20455;-62
2022/07/06 16:20:06;;;;;;;1.05;0.45;;;;;;;23.11;51.83;101312.44;8252374;28;20054;-62
2022/07/06 16:24:07;;;;;;;3.40;0.45;;;;;;;22.98;51.39;101307.69;8242946;28;20504;-62
2022/07/06 16:28:07;;;;;;;1.23;0.55;;;;;;;23.13;51.39;101299.28;8232237;28;20173;-62
2022/07/06 16:32:08;;;;;;;1.65;0.60;;;;;;;23.23;51.61;101305.28;8224725;28;20045;-62
2022/07/06 16:36:10;;;;;;;6.22;0.60;;;;;;;23.21;51.49;101299.13;8239090;28;20085;-62
2022/07/06 16:40:11;;;;;;;4.28;0.80;;;;;;;23.01;51.62;101300.91;8224091;28;20546;-62
2022/07/06 16:44:11;;;;;;;2.20;0.43;;;;;;;23.11;51.83;101288.47;8219309;28;20457;-62
2022/07/06 16:48:12;;;;;;;4.37;0.53;;;;;;;22.91;51.33;101284.72;8227615;28;20061;-62
2022/07/06 16:52:12;;;;;;;2.35;0.75;;;;;;;22.89;51.81;101284.06;8248648;28;20463;-62
2022/07/06 16:56:12;;;;;;;1.90;0.60;;;;;;;23.01;52.29;101279.69;8235499;28;20568;-62
2022/07/06 17:00:13;;;;;;;5.55;0.90;;;;;;;22.95;52.93;101280.50;8250328;28;20046;-62
2022/07/06 17:04:13;;;;;;;1.88;0.50;;;;;;;23.00;52.86;101272.47;8247550;28;20074;-62
2022/07/06 17:08:14;;;;;;;2.83;0.50;;;;;;;23.08;52.43;101275.06;8248293;28;20046;-62
2022/07/06 17:12:14;;;;;;;2.38;0.40;;;;;;;23.03;52.53;101276.75;8241224;28;20344;-62
2022/07/06 17:16:14;;;;;;;1.87;0.70;;;;;;;23.03;52.88;101272.06;8243887;28;20065;-62
2022/07/06 17:20:15;;;;;;;2.78;0.43;;;;;;;22.95;53.47;101268.63;8243091;28;20299;-62
2022/07/06 17:24:15;;;;;;;4.97;0.77;;;;;;;22.93;53.24;101265.19;8239763;28;20430;-62
2022/07/06 17:28:16;;;;;;;1.42;0.57;;;;;;;23.00;53.62;101269.69;8242814;28;20045;-62
2022/07/06 17:32:16;;;;;;;4.32;0.93;;;;;;;22.93;53.96;101270.72;8245026;28;20193;-62
2022/07/06 17:36:17;;;;;;;4.22;0.85;;;;;;;22.74;56.06;101260.41;8255190;28;20042;-62
2022/07/06 17:40:21;;;;;;;13.68;1.05;;;;;;;22.70;56.37;101268.25;8241791;28;20046;-62
2022/07/06 17:44:21;;;;;;;1.15;0.63;;;;;;;22.53;55.73;101266.81;8242951;28;20446;-62
2022/07/06 17:48:22;;;;;;;2.43;0.90;;;;;;;22.39;57.02;101255.88;8248232;28;20039;-62
2022/07/06 17:52:22;;;;;;;5.13;0.73;;;;;;;22.45;56.75;101255.06;8249054;28;20270;-62
2022/07/06 17:56:24;;;;;;;7.28;1.02;;;;;;;22.42;56.95;101245.28;8242580;28;20042;-62
2022/07/06 18:00:25;;;;;;;8.10;1.20;;;;;;;22.47;56.78;101248.28;8243110;28;20042;-62
2022/07/06 18:04:25;;;;;;;6.93;0.90;;;;;;;22.32;56.94;101244.78;8246363;28;20051;-62
2022/07/06 18:08:25;;;;;;;4.22;0.85;;;;;;;22.25;58.02;101243.00;8245514;28;20460;-62
2022/07/06 18:12:26;;;;;;;2.43;0.73;;;;;;;22.18;57.80;101247.63;8242316;28;20061;-62
2022/07/06 18:16:28;;;;;;;7.47;0.90;;;;;;;22.23;58.79;101236.88;8243780;28;20822;-62
2022/07/06 18:20:28;;;;;;;4.32;0.90;;;;;;;22.13;58.13;101239.94;8244765;28;20333;-62
2022/07/06 18:24:29;;;;;;;5.33;0.80;;;;;;;22.09;58.99;101238.66;8245563;28;20046;-62
2022/07/06 18:28:29;;;;;;;9.43;1.17;;;;;;;22.03;58.88;101241.31;8228703;28;20286;-62
2022/07/06 18:32:30;;;;;;;8.43;1.10;;;;;;;22.05;58.64;101237.31;8242331;28;20439;-62
2022/07/06 18:36:31;;;;;;;3.90;1.00;;;;;;;22.10;58.54;101240.34;8245360;28;20133;-62
2022/07/06 18:40:32;;;;;;;10.40;1.15;;;;;;;22.14;58.75;101252.66;8248471;28;20081;-62